sensor_id;sensor_type;location;lat;lon;timestamp;P1;durP1;ratioP1;P2;durP2;ratioP2
40022;SDS011;25713;-35.352;149.036;2024-02-15T00:01:47;1.98;;;0.65;;
40022;SDS011;25713;-35.352;149.036;2024-02-15T00:04:17;1.23;;;0.60;;
40022;SDS011;25713;-35.352;149.036;2024-02-15T00:06:46;0.93;;;0.40;;
40022;SDS011;25713;-35.352;149.036;2024-02-15T00:09:16;1.05;;;0.40;;
40022;SDS011;25713;-35.352;149.036;2024-02-15T00:11:45;2.13;;;0.52;;
40022;SDS011;25713;-35.352;149.036;2024-02-15T00:14:16;1.73;;;0.77;;
40022;SDS011;25713;-35.352;149.036;2024-02-15T00:16:46;1.05;;;0.50;;
40022;SDS011;25713;-35.352;149.036;2024-02-15T00:19:15;1.80;;;0.70;;
40022;SDS011;25713;-35.352;149.036;2024-02-15T00:21:45;1.73;;;0.50;;
40022;SDS011;25713;-35.352;149.036;2024-02-15T00:24:14;0.73;;;0.50;;
40022;SDS011;25713;-35.352;149.036;2024-02-15T00:26:44;2.50;;;0.63;;
40022;SDS011;25713;-35.352;149.036;2024-02-15T00:29:16;0.50;;;0.40;;
40022;SDS011;25713;-35.352;149.036;2024-02-15T00:31:46;1.55;;;0.50;;
40022;SDS011;25713;-35.352;149.036;2024-02-15T00:34:16;2.38;;;0.60;;
40022;SDS011;25713;-35.352;149.036;2024-02-15T00:36:45;0.98;;;0.50;;
40022;SDS011;25713;-35.352;149.036;2024-02-15T00:39:14;2.25;;;0.52;;
40022;SDS011;25713;-35.352;149.036;2024-02-15T00:41:44;1.58;;;0.45;;
40022;SDS011;25713;-35.352;149.036;2024-02-15T00:44:16;1.20;;;0.50;;
40022;SDS011;25713;-35.352;149.036;2024-02-15T00:46:46;1.13;;;0.47;;
40022;SDS011;25713;-35.352;149.036;2024-02-15T00:49:15;1.85;;;0.80;;
40022;SDS011;25713;-35.352;149.036;2024-02-15T00:51:45;1.58;;;0.77;;
40022;SDS011;25713;-35.352;149.036;2024-02-15T00:54:14;1.55;;;0.50;;
40022;SDS011;25713;-35.352;149.036;2024-02-15T00:56:44;1.42;;;0.50;;
40022;SDS011;25713;-35.352;149.036;2024-02-15T00:59:16;1.02;;;0.60;;
40022;SDS011;25713;-35.352;149.036;2024-02-15T01:01:46;1.35;;;0.50;;
40022;SDS011;25713;-35.352;149.036;2024-02-15T01:04:15;1.48;;;0.50;;
40022;SDS011;25713;-35.352;149.036;2024-02-15T01:06:45;0.77;;;0.45;;
40022;SDS011;25713;-35.352;149.036;2024-02-15T01:09:14;1.75;;;0.52;;
40022;SDS011;25713;-35.352;149.036;2024-02-15T01:11:44;1.15;;;0.50;;
40022;SDS011;25713;-35.352;149.036;2024-02-15T01:14:15;1.98;;;0.60;;
40022;SDS011;25713;-35.352;149.036;2024-02-15T01:16:45;1.97;;;0.57;;
40022;SDS011;25713;-35.352;149.036;2024-02-15T01:19:14;1.02;;;0.40;;
40022;SDS011;25713;-35.352;149.036;2024-02-15T01:21:44;1.75;;;0.47;;
40022;SDS011;25713;-35.352;149.036;2024-02-15T01:24:13;1.48;;;0.60;;
40022;SDS011;25713;-35.352;149.036;2024-02-15T01:26:43;2.47;;;0.60;;
40022;SDS011;25713;-35.352;149.036;2024-02-15T01:29:12;2.45;;;0.50;;
40022;SDS011;25713;-35.352;149.036;2024-02-15T01:31:43;0.83;;;0.60;;
40022;SDS011;25713;-35.352;149.036;2024-02-15T01:34:13;0.63;;;0.40;;
40022;SDS011;25713;-35.352;149.036;2024-02-15T01:36:42;2.15;;;0.47;;
40022;SDS011;25713;-35.352;149.036;2024-02-15T01:39:15;0.50;;;0.50;;
40022;SDS011;25713;-35.352;149.036;2024-02-15T01:41:46;0.60;;;0.50;;
40022;SDS011;25713;-35.352;149.036;2024-02-15T01:44:18;2.95;;;0.68;;
40022;SDS011;25713;-35.352;149.036;2024-02-15T01:46:48;1.70;;;0.70;;
40022;SDS011;25713;-35.352;149.036;2024-02-15T01:49:18;1.13;;;0.52;;
40022;SDS011;25713;-35.352;149.036;2024-02-15T01:51:49;2.33;;;0.60;;
40022;SDS011;25713;-35.352;149.036;2024-02-15T01:54:20;1.77;;;0.52;;
40022;SDS011;25713;-35.352;149.036;2024-02-15T01:56:50;3.25;;;0.75;;
40022;SDS011;25713;-35.352;149.036;2024-02-15T01:59:24;2.80;;;0.60;;
40022;SDS011;25713;-35.352;149.036;2024-02-15T02:01:54;1.73;;;0.60;;
40022;SDS011;25713;-35.352;149.036;2024-02-15T02:04:24;3.33;;;0.70;;
40022;SDS011;25713;-35.352;149.036;2024-02-15T02:06:53;2.20;;;0.75;;
40022;SDS011;25713;-35.352;149.036;2024-02-15T02:09:22;1.88;;;0.50;;
40022;SDS011;25713;-35.352;149.036;2024-02-15T02:11:52;2.13;;;0.70;;
40022;SDS011;25713;-35.352;149.036;2024-02-15T02:14:24;1.00;;;0.75;;
40022;SDS011;25713;-35.352;149.036;2024-02-15T02:16:53;3.15;;;1.35;;
40022;SDS011;25713;-35.352;149.036;2024-02-15T02:19:22;2.20;;;0.70;;
40022;SDS011;25713;-35.352;149.036;2024-02-15T02:21:52;2.05;;;0.80;;
40022;SDS011;25713;-35.352;149.036;2024-02-15T02:24:22;2.35;;;0.80;;
40022;SDS011;25713;-35.352;149.036;2024-02-15T02:26:54;1.63;;;0.60;;
40022;SDS011;25713;-35.352;149.036;2024-02-15T02:29:24;1.10;;;0.55;;
40022;SDS011;25713;-35.352;149.036;2024-02-15T02:31:53;2.30;;;0.60;;
40022;SDS011;25713;-35.352;149.036;2024-02-15T02:34:22;1.25;;;0.60;;
40022;SDS011;25713;-35.352;149.036;2024-02-15T02:36:52;2.08;;;0.60;;
40022;SDS011;25713;-35.352;149.036;2024-02-15T02:39:21;2.10;;;0.65;;
40022;SDS011;25713;-35.352;149.036;2024-02-15T02:41:51;2.70;;;0.60;;
40022;SDS011;25713;-35.352;149.036;2024-02-15T02:44:23;1.35;;;0.60;;
40022;SDS011;25713;-35.352;149.036;2024-02-15T02:46:53;1.17;;;0.60;;
40022;SDS011;25713;-35.352;149.036;2024-02-15T02:49:23;1.20;;;0.65;;
40022;SDS011;25713;-35.352;149.036;2024-02-15T02:51:52;2.20;;;0.63;;
40022;SDS011;25713;-35.352;149.036;2024-02-15T02:54:22;3.00;;;0.70;;
40022;SDS011;25713;-35.352;149.036;2024-02-15T02:56:52;1.13;;;0.40;;
40022;SDS011;25713;-35.352;149.036;2024-02-15T02:59:25;2.55;;;0.70;;
40022;SDS011;25713;-35.352;149.036;2024-02-15T03:01:54;1.05;;;0.60;;
40022;SDS011;25713;-35.352;149.036;2024-02-15T03:04:24;1.92;;;0.70;;
40022;SDS011;25713;-35.352;149.036;2024-02-15T03:06:53;0.93;;;0.52;;
40022;SDS011;25713;-35.352;149.036;2024-02-15T03:09:23;0.88;;;0.68;;
40022;SDS011;25713;-35.352;149.036;2024-02-15T03:11:52;2.15;;;0.70;;
40022;SDS011;25713;-35.352;149.036;2024-02-15T03:14:24;1.48;;;0.70;;
40022;SDS011;25713;-35.352;149.036;2024-02-15T03:16:54;1.85;;;0.70;;
40022;SDS011;25713;-35.352;149.036;2024-02-15T03:19:24;1.45;;;0.63;;
40022;SDS011;25713;-35.352;149.036;2024-02-15T03:21:55;1.35;;;0.70;;
40022;SDS011;25713;-35.352;149.036;2024-02-15T03:24:24;1.70;;;0.77;;
40022;SDS011;25713;-35.352;149.036;2024-02-15T03:26:56;1.80;;;0.60;;
40022;SDS011;25713;-35.352;149.036;2024-02-15T03:29:25;0.87;;;0.60;;
40022;SDS011;25713;-35.352;149.036;2024-02-15T03:31:55;1.45;;;0.88;;
40022;SDS011;25713;-35.352;149.036;2024-02-15T03:34:24;1.30;;;0.73;;
40022;SDS011;25713;-35.352;149.036;2024-02-15T03:36:54;3.38;;;0.70;;
40022;SDS011;25713;-35.352;149.036;2024-02-15T03:39:23;2.13;;;0.88;;
40022;SDS011;25713;-35.352;149.036;2024-02-15T03:41:53;4.03;;;0.98;;
40022;SDS011;25713;-35.352;149.036;2024-02-15T03:44:25;2.20;;;0.70;;
40022;SDS011;25713;-35.352;149.036;2024-02-15T03:46:55;1.38;;;0.80;;
40022;SDS011;25713;-35.352;149.036;2024-02-15T03:49:24;3.22;;;1.08;;
40022;SDS011;25713;-35.352;149.036;2024-02-15T03:51:54;1.92;;;0.75;;
40022;SDS011;25713;-35.352;149.036;2024-02-15T03:54:23;2.05;;;0.90;;
40022;SDS011;25713;-35.352;149.036;2024-02-15T03:56:53;1.92;;;0.95;;
40022;SDS011;25713;-35.352;149.036;2024-02-15T03:59:24;1.95;;;1.00;;
40022;SDS011;25713;-35.352;149.036;2024-02-15T04:01:54;1.80;;;0.70;;
40022;SDS011;25713;-35.352;149.036;2024-02-15T04:04:23;1.38;;;0.80;;
40022;SDS011;25713;-35.352;149.036;2024-02-15T04:06:53;1.58;;;0.85;;
40022;SDS011;25713;-35.352;149.036;2024-02-15T04:09:22;3.05;;;0.75;;
40022;SDS011;25713;-35.352;149.036;2024-02-15T04:11:55;1.92;;;0.90;;
40022;SDS011;25713;-35.352;149.036;2024-02-15T04:14:26;2.38;;;1.00;;
40022;SDS011;25713;-35.352;149.036;2024-02-15T04:16:55;4.33;;;1.23;;
40022;SDS011;25713;-35.352;149.036;2024-02-15T04:19:25;2.60;;;0.82;;
40022;SDS011;25713;-35.352;149.036;2024-02-15T04:21:54;5.45;;;1.15;;
40022;SDS011;25713;-35.352;149.036;2024-02-15T04:24:24;3.13;;;0.90;;
40022;SDS011;25713;-35.352;149.036;2024-02-15T04:26:53;2.03;;;1.00;;
40022;SDS011;25713;-35.352;149.036;2024-02-15T04:29:23;4.00;;;1.23;;
40022;SDS011;25713;-35.352;149.036;2024-02-15T04:31:55;3.72;;;1.00;;
40022;SDS011;25713;-35.352;149.036;2024-02-15T04:34:25;3.00;;;1.08;;
40022;SDS011;25713;-35.352;149.036;2024-02-15T04:36:54;3.60;;;1.02;;
40022;SDS011;25713;-35.352;149.036;2024-02-15T04:39:24;4.45;;;1.23;;
40022;SDS011;25713;-35.352;149.036;2024-02-15T04:41:53;2.10;;;1.20;;
40022;SDS011;25713;-35.352;149.036;2024-02-15T04:44:23;1.85;;;1.00;;
40022;SDS011;25713;-35.352;149.036;2024-02-15T04:46:55;3.53;;;1.33;;
40022;SDS011;25713;-35.352;149.036;2024-02-15T04:49:24;4.15;;;1.27;;
40022;SDS011;25713;-35.352;149.036;2024-02-15T04:51:54;3.17;;;1.40;;
40022;SDS011;25713;-35.352;149.036;2024-02-15T04:54:24;7.47;;;1.60;;
40022;SDS011;25713;-35.352;149.036;2024-02-15T04:56:53;3.25;;;1.33;;
40022;SDS011;25713;-35.352;149.036;2024-02-15T04:59:23;3.05;;;1.20;;
40022;SDS011;25713;-35.352;149.036;2024-02-15T05:01:55;2.47;;;1.40;;
40022;SDS011;25713;-35.352;149.036;2024-02-15T05:04:26;2.00;;;1.25;;
40022;SDS011;25713;-35.352;149.036;2024-02-15T05:06:55;2.63;;;1.35;;
40022;SDS011;25713;-35.352;149.036;2024-02-15T05:09:25;5.25;;;1.58;;
40022;SDS011;25713;-35.352;149.036;2024-02-15T05:11:54;1.67;;;1.30;;
40022;SDS011;25713;-35.352;149.036;2024-02-15T05:14:24;2.25;;;1.27;;
40022;SDS011;25713;-35.352;149.036;2024-02-15T05:16:56;3.08;;;1.40;;
40022;SDS011;25713;-35.352;149.036;2024-02-15T05:19:26;4.65;;;1.58;;
40022;SDS011;25713;-35.352;149.036;2024-02-15T05:21:57;4.18;;;1.55;;
40022;SDS011;25713;-35.352;149.036;2024-02-15T05:24:26;3.30;;;1.45;;
40022;SDS011;25713;-35.352;149.036;2024-02-15T05:26:56;1.52;;;1.30;;
40022;SDS011;25713;-35.352;149.036;2024-02-15T05:29:27;3.35;;;1.58;;
40022;SDS011;25713;-35.352;149.036;2024-02-15T05:31:57;3.08;;;1.70;;
40022;SDS011;25713;-35.352;149.036;2024-02-15T05:34:27;2.90;;;1.70;;
40022;SDS011;25713;-35.352;149.036;2024-02-15T05:36:56;5.60;;;1.77;;
40022;SDS011;25713;-35.352;149.036;2024-02-15T05:39:26;2.38;;;1.60;;
40022;SDS011;25713;-35.352;149.036;2024-02-15T05:41:56;2.60;;;1.45;;
40022;SDS011;25713;-35.352;149.036;2024-02-15T05:44:25;2.42;;;1.50;;
40022;SDS011;25713;-35.352;149.036;2024-02-15T05:46:57;2.72;;;1.60;;
40022;SDS011;25713;-35.352;149.036;2024-02-15T05:49:26;3.80;;;1.50;;
40022;SDS011;25713;-35.352;149.036;2024-02-15T05:51:56;3.15;;;1.50;;
40022;SDS011;25713;-35.352;149.036;2024-02-15T05:54:26;1.77;;;1.30;;
40022;SDS011;25713;-35.352;149.036;2024-02-15T05:56:55;3.13;;;1.40;;
40022;SDS011;25713;-35.352;149.036;2024-02-15T05:59:25;2.13;;;1.30;;
40022;SDS011;25713;-35.352;149.036;2024-02-15T06:01:57;2.50;;;1.23;;
40022;SDS011;25713;-35.352;149.036;2024-02-15T06:04:26;3.90;;;1.70;;
40022;SDS011;25713;-35.352;149.036;2024-02-15T06:06:56;3.88;;;1.50;;
40022;SDS011;25713;-35.352;149.036;2024-02-15T06:09:25;2.53;;;1.50;;
40022;SDS011;25713;-35.352;149.036;2024-02-15T06:11:55;1.60;;;1.33;;
40022;SDS011;25713;-35.352;149.036;2024-02-15T06:14:25;1.42;;;1.33;;
40022;SDS011;25713;-35.352;149.036;2024-02-15T06:16:56;2.83;;;1.37;;
40022;SDS011;25713;-35.352;149.036;2024-02-15T06:19:26;2.17;;;1.38;;
40022;SDS011;25713;-35.352;149.036;2024-02-15T06:21:55;5.22;;;1.40;;
40022;SDS011;25713;-35.352;149.036;2024-02-15T06:24:24;2.85;;;1.35;;
40022;SDS011;25713;-35.352;149.036;2024-02-15T06:26:54;3.80;;;1.40;;
40022;SDS011;25713;-35.352;149.036;2024-02-15T06:29:23;1.77;;;1.30;;
40022;SDS011;25713;-35.352;149.036;2024-02-15T06:31:55;1.60;;;1.30;;
40022;SDS011;25713;-35.352;149.036;2024-02-15T06:34:24;3.03;;;1.52;;
40022;SDS011;25713;-35.352;149.036;2024-02-15T06:36:54;2.42;;;1.58;;
40022;SDS011;25713;-35.352;149.036;2024-02-15T06:39:24;2.40;;;1.20;;
40022;SDS011;25713;-35.352;149.036;2024-02-15T06:41:54;3.17;;;1.25;;
40022;SDS011;25713;-35.352;149.036;2024-02-15T06:44:23;5.80;;;1.20;;
40022;SDS011;25713;-35.352;149.036;2024-02-15T06:46:54;1.95;;;1.10;;
40022;SDS011;25713;-35.352;149.036;2024-02-15T06:49:24;1.93;;;1.20;;
40022;SDS011;25713;-35.352;149.036;2024-02-15T06:51:53;3.55;;;1.15;;
40022;SDS011;25713;-35.352;149.036;2024-02-15T06:54:22;3.15;;;1.20;;
40022;SDS011;25713;-35.352;149.036;2024-02-15T06:56:52;2.00;;;1.10;;
40022;SDS011;25713;-35.352;149.036;2024-02-15T06:59:22;2.33;;;1.00;;
40022;SDS011;25713;-35.352;149.036;2024-02-15T07:01:51;1.67;;;1.23;;
40022;SDS011;25713;-35.352;149.036;2024-02-15T07:04:22;2.10;;;1.25;;
40022;SDS011;25713;-35.352;149.036;2024-02-15T07:06:52;2.38;;;1.38;;
40022;SDS011;25713;-35.352;149.036;2024-02-15T07:09:21;2.67;;;1.20;;
40022;SDS011;25713;-35.352;149.036;2024-02-15T07:11:51;4.10;;;1.10;;
40022;SDS011;25713;-35.352;149.036;2024-02-15T07:14:20;2.63;;;1.23;;
40022;SDS011;25713;-35.352;149.036;2024-02-15T07:16:50;2.70;;;1.27;;
40022;SDS011;25713;-35.352;149.036;2024-02-15T07:19:21;3.60;;;1.23;;
40022;SDS011;25713;-35.352;149.036;2024-02-15T07:21:50;2.00;;;1.10;;
40022;SDS011;25713;-35.352;149.036;2024-02-15T07:24:20;4.50;;;1.30;;
40022;SDS011;25713;-35.352;149.036;2024-02-15T07:26:49;2.75;;;1.25;;
40022;SDS011;25713;-35.352;149.036;2024-02-15T07:29:19;4.35;;;1.05;;
40022;SDS011;25713;-35.352;149.036;2024-02-15T07:31:48;1.58;;;1.10;;
40022;SDS011;25713;-35.352;149.036;2024-02-15T07:34:18;2.78;;;1.20;;
40022;SDS011;25713;-35.352;149.036;2024-02-15T07:36:50;1.00;;;0.90;;
40022;SDS011;25713;-35.352;149.036;2024-02-15T07:39:20;2.70;;;1.20;;
40022;SDS011;25713;-35.352;149.036;2024-02-15T07:41:49;2.00;;;1.00;;
40022;SDS011;25713;-35.352;149.036;2024-02-15T07:44:19;4.00;;;1.30;;
40022;SDS011;25713;-35.352;149.036;2024-02-15T07:46:48;2.33;;;0.98;;
40022;SDS011;25713;-35.352;149.036;2024-02-15T07:49:18;2.00;;;1.02;;
40022;SDS011;25713;-35.352;149.036;2024-02-15T07:51:49;3.97;;;1.20;;
40022;SDS011;25713;-35.352;149.036;2024-02-15T07:54:19;3.15;;;1.23;;
40022;SDS011;25713;-35.352;149.036;2024-02-15T07:56:49;2.13;;;1.10;;
40022;SDS011;25713;-35.352;149.036;2024-02-15T07:59:18;2.17;;;1.00;;
40022;SDS011;25713;-35.352;149.036;2024-02-15T08:01:47;1.88;;;1.00;;
40022;SDS011;25713;-35.352;149.036;2024-02-15T08:04:17;1.75;;;1.02;;
40022;SDS011;25713;-35.352;149.036;2024-02-15T08:06:48;1.83;;;1.23;;
40022;SDS011;25713;-35.352;149.036;2024-02-15T08:09:18;1.08;;;0.98;;
40022;SDS011;25713;-35.352;149.036;2024-02-15T08:11:47;1.48;;;1.15;;
40022;SDS011;25713;-35.352;149.036;2024-02-15T08:14:17;1.83;;;1.02;;
40022;SDS011;25713;-35.352;149.036;2024-02-15T08:16:46;2.80;;;0.95;;
40022;SDS011;25713;-35.352;149.036;2024-02-15T08:19:16;2.03;;;1.20;;
40022;SDS011;25713;-35.352;149.036;2024-02-15T08:21:45;3.70;;;1.10;;
40022;SDS011;25713;-35.352;149.036;2024-02-15T08:24:17;2.80;;;1.50;;
40022;SDS011;25713;-35.352;149.036;2024-02-15T08:26:47;3.05;;;1.40;;
40022;SDS011;25713;-35.352;149.036;2024-02-15T08:29:16;2.55;;;1.02;;
40022;SDS011;25713;-35.352;149.036;2024-02-15T08:31:45;3.13;;;1.25;;
40022;SDS011;25713;-35.352;149.036;2024-02-15T08:34:15;2.42;;;1.30;;
40022;SDS011;25713;-35.352;149.036;2024-02-15T08:36:44;1.88;;;1.13;;
40022;SDS011;25713;-35.352;149.036;2024-02-15T08:39:16;2.47;;;1.10;;
40022;SDS011;25713;-35.352;149.036;2024-02-15T08:41:51;5.15;;;1.40;;
40022;SDS011;25713;-35.352;149.036;2024-02-15T08:44:20;3.78;;;1.20;;
40022;SDS011;25713;-35.352;149.036;2024-02-15T08:46:49;5.22;;;1.15;;
40022;SDS011;25713;-35.352;149.036;2024-02-15T08:49:19;3.75;;;1.30;;
40022;SDS011;25713;-35.352;149.036;2024-02-15T08:51:48;5.40;;;1.27;;
40022;SDS011;25713;-35.352;149.036;2024-02-15T08:54:19;1.88;;;0.98;;
40022;SDS011;25713;-35.352;149.036;2024-02-15T08:56:49;1.65;;;1.10;;
40022;SDS011;25713;-35.352;149.036;2024-02-15T08:59:18;3.08;;;1.33;;
40022;SDS011;25713;-35.352;149.036;2024-02-15T09:01:49;2.30;;;1.00;;
40022;SDS011;25713;-35.352;149.036;2024-02-15T09:04:19;2.63;;;1.20;;
40022;SDS011;25713;-35.352;149.036;2024-02-15T09:06:48;2.53;;;1.20;;
40022;SDS011;25713;-35.352;149.036;2024-02-15T09:09:20;3.60;;;1.23;;
40022;SDS011;25713;-35.352;149.036;2024-02-15T09:11:49;1.60;;;1.20;;
40022;SDS011;25713;-35.352;149.036;2024-02-15T09:14:19;1.92;;;1.38;;
40022;SDS011;25713;-35.352;149.036;2024-02-15T09:16:48;2.13;;;1.33;;
40022;SDS011;25713;-35.352;149.036;2024-02-15T09:19:18;2.03;;;1.30;;
40022;SDS011;25713;-35.352;149.036;2024-02-15T09:21:47;4.63;;;1.48;;
40022;SDS011;25713;-35.352;149.036;2024-02-15T09:24:16;3.05;;;1.20;;
40022;SDS011;25713;-35.352;149.036;2024-02-15T09:26:48;2.00;;;1.13;;
40022;SDS011;25713;-35.352;149.036;2024-02-15T09:29:17;2.13;;;1.20;;
40022;SDS011;25713;-35.352;149.036;2024-02-15T09:31:47;2.28;;;1.42;;
40022;SDS011;25713;-35.352;149.036;2024-02-15T09:34:17;2.45;;;1.25;;
40022;SDS011;25713;-35.352;149.036;2024-02-15T09:36:46;3.83;;;1.48;;
40022;SDS011;25713;-35.352;149.036;2024-02-15T09:39:16;2.60;;;1.40;;
40022;SDS011;25713;-35.352;149.036;2024-02-15T09:41:47;2.42;;;1.50;;
40022;SDS011;25713;-35.352;149.036;2024-02-15T09:44:17;2.78;;;1.60;;
40022;SDS011;25713;-35.352;149.036;2024-02-15T09:46:47;1.88;;;1.23;;
40022;SDS011;25713;-35.352;149.036;2024-02-15T09:49:29;2.90;;;1.50;;
40022;SDS011;25713;-35.352;149.036;2024-02-15T09:52:03;4.90;;;1.60;;
40022;SDS011;25713;-35.352;149.036;2024-02-15T09:54:37;1.83;;;1.30;;
40022;SDS011;25713;-35.352;149.036;2024-02-15T09:57:08;3.10;;;1.30;;
40022;SDS011;25713;-35.352;149.036;2024-02-15T09:59:37;3.25;;;1.20;;
40022;SDS011;25713;-35.352;149.036;2024-02-15T10:02:07;4.25;;;1.60;;
40022;SDS011;25713;-35.352;149.036;2024-02-15T10:04:37;3.67;;;1.67;;
40022;SDS011;25713;-35.352;149.036;2024-02-15T10:07:07;4.53;;;1.50;;
40022;SDS011;25713;-35.352;149.036;2024-02-15T10:09:39;2.60;;;1.48;;
40022;SDS011;25713;-35.352;149.036;2024-02-15T10:12:08;5.95;;;1.55;;
40022;SDS011;25713;-35.352;149.036;2024-02-15T10:14:38;3.97;;;1.30;;
40022;SDS011;25713;-35.352;149.036;2024-02-15T10:17:14;5.03;;;1.40;;
40022;SDS011;25713;-35.352;149.036;2024-02-15T10:19:45;4.60;;;1.50;;
40022;SDS011;25713;-35.352;149.036;2024-02-15T10:22:32;3.25;;;1.88;;
40022;SDS011;25713;-35.352;149.036;2024-02-15T10:25:13;7.20;;;1.52;;
40022;SDS011;25713;-35.352;149.036;2024-02-15T10:27:42;2.13;;;1.25;;
40022;SDS011;25713;-35.352;149.036;2024-02-15T10:30:15;6.05;;;1.50;;
40022;SDS011;25713;-35.352;149.036;2024-02-15T10:32:46;3.53;;;1.50;;
40022;SDS011;25713;-35.352;149.036;2024-02-15T10:35:22;3.63;;;1.35;;
40022;SDS011;25713;-35.352;149.036;2024-02-15T10:37:51;2.75;;;1.55;;
40022;SDS011;25713;-35.352;149.036;2024-02-15T10:40:35;3.22;;;1.48;;
40022;SDS011;25713;-35.352;149.036;2024-02-15T10:43:05;2.13;;;1.20;;
40022;SDS011;25713;-35.352;149.036;2024-02-15T10:45:34;3.80;;;1.42;;
40022;SDS011;25713;-35.352;149.036;2024-02-15T10:48:06;3.92;;;1.33;;
40022;SDS011;25713;-35.352;149.036;2024-02-15T10:50:36;2.95;;;1.25;;
40022;SDS011;25713;-35.352;149.036;2024-02-15T10:53:11;4.15;;;1.45;;
40022;SDS011;25713;-35.352;149.036;2024-02-15T10:55:57;4.32;;;1.65;;
40022;SDS011;25713;-35.352;149.036;2024-02-15T10:58:34;2.20;;;1.30;;
40022;SDS011;25713;-35.352;149.036;2024-02-15T11:01:09;5.32;;;1.60;;
40022;SDS011;25713;-35.352;149.036;2024-02-15T11:03:45;8.45;;;1.60;;
40022;SDS011;25713;-35.352;149.036;2024-02-15T11:06:18;2.13;;;1.35;;
40022;SDS011;25713;-35.352;149.036;2024-02-15T11:08:51;3.60;;;1.38;;
40022;SDS011;25713;-35.352;149.036;2024-02-15T11:11:23;2.65;;;1.23;;
40022;SDS011;25713;-35.352;149.036;2024-02-15T11:16:52;1.98;;;1.20;;
40022;SDS011;25713;-35.352;149.036;2024-02-15T11:19:40;3.13;;;1.35;;
40022;SDS011;25713;-35.352;149.036;2024-02-15T11:22:12;7.00;;;1.40;;
40022;SDS011;25713;-35.352;149.036;2024-02-15T11:24:48;4.28;;;1.40;;
40022;SDS011;25713;-35.352;149.036;2024-02-15T11:27:26;2.70;;;1.35;;
40022;SDS011;25713;-35.352;149.036;2024-02-15T11:29:56;2.78;;;1.30;;
40022;SDS011;25713;-35.352;149.036;2024-02-15T11:32:40;1.90;;;1.27;;
40022;SDS011;25713;-35.352;149.036;2024-02-15T11:35:10;2.05;;;1.13;;
40022;SDS011;25713;-35.352;149.036;2024-02-15T11:37:53;2.95;;;1.20;;
40022;SDS011;25713;-35.352;149.036;2024-02-15T11:40:26;1.70;;;1.00;;
40022;SDS011;25713;-35.352;149.036;2024-02-15T11:42:59;3.75;;;1.17;;
40022;SDS011;25713;-35.352;149.036;2024-02-15T11:45:32;1.55;;;1.02;;
40022;SDS011;25713;-35.352;149.036;2024-02-15T11:48:02;2.67;;;1.10;;
40022;SDS011;25713;-35.352;149.036;2024-02-15T11:50:34;1.50;;;0.90;;
40022;SDS011;25713;-35.352;149.036;2024-02-15T11:53:04;1.10;;;0.90;;
40022;SDS011;25713;-35.352;149.036;2024-02-15T11:55:35;2.42;;;1.00;;
40022;SDS011;25713;-35.352;149.036;2024-02-15T11:58:07;3.75;;;1.05;;
40022;SDS011;25713;-35.352;149.036;2024-02-15T12:00:37;2.65;;;1.00;;
40022;SDS011;25713;-35.352;149.036;2024-02-15T12:03:07;3.22;;;1.00;;
40022;SDS011;25713;-35.352;149.036;2024-02-15T12:05:36;2.55;;;0.90;;
40022;SDS011;25713;-35.352;149.036;2024-02-15T12:08:06;1.08;;;0.80;;
40022;SDS011;25713;-35.352;149.036;2024-02-15T12:10:39;3.20;;;1.00;;
40022;SDS011;25713;-35.352;149.036;2024-02-15T12:13:10;0.85;;;0.77;;
40022;SDS011;25713;-35.352;149.036;2024-02-15T12:15:56;1.70;;;1.00;;
40022;SDS011;25713;-35.352;149.036;2024-02-15T12:18:26;1.25;;;0.80;;
40022;SDS011;25713;-35.352;149.036;2024-02-15T12:20:56;2.13;;;0.98;;
40022;SDS011;25713;-35.352;149.036;2024-02-15T12:23:26;1.58;;;1.20;;
40022;SDS011;25713;-35.352;149.036;2024-02-15T12:25:56;0.90;;;0.70;;
40022;SDS011;25713;-35.352;149.036;2024-02-15T12:28:27;1.10;;;0.85;;
40022;SDS011;25713;-35.352;149.036;2024-02-15T12:30:57;1.80;;;1.00;;
40022;SDS011;25713;-35.352;149.036;2024-02-15T12:33:26;0.80;;;0.80;;
40022;SDS011;25713;-35.352;149.036;2024-02-15T12:36:03;1.90;;;0.82;;
40022;SDS011;25713;-35.352;149.036;2024-02-15T12:38:33;1.00;;;0.90;;
40022;SDS011;25713;-35.352;149.036;2024-02-15T12:41:03;1.17;;;0.93;;
40022;SDS011;25713;-35.352;149.036;2024-02-15T12:43:46;1.08;;;0.70;;
40022;SDS011;25713;-35.352;149.036;2024-02-15T12:46:20;2.15;;;0.80;;
40022;SDS011;25713;-35.352;149.036;2024-02-15T12:48:50;1.88;;;0.90;;
40022;SDS011;25713;-35.352;149.036;2024-02-15T12:51:19;1.48;;;1.00;;
40022;SDS011;25713;-35.352;149.036;2024-02-15T12:53:49;0.93;;;0.80;;
40022;SDS011;25713;-35.352;149.036;2024-02-15T12:56:21;3.00;;;0.82;;
40022;SDS011;25713;-35.352;149.036;2024-02-15T12:58:52;1.67;;;0.85;;
40022;SDS011;25713;-35.352;149.036;2024-02-15T13:01:22;1.42;;;1.00;;
40022;SDS011;25713;-35.352;149.036;2024-02-15T13:03:51;0.65;;;0.65;;
40022;SDS011;25713;-35.352;149.036;2024-02-15T13:06:21;1.17;;;0.75;;
40022;SDS011;25713;-35.352;149.036;2024-02-15T13:08:50;1.55;;;0.75;;
40022;SDS011;25713;-35.352;149.036;2024-02-15T13:11:20;1.05;;;0.68;;
40022;SDS011;25713;-35.352;149.036;2024-02-15T13:13:49;0.65;;;0.60;;
40022;SDS011;25713;-35.352;149.036;2024-02-15T13:16:21;3.10;;;0.60;;
40022;SDS011;25713;-35.352;149.036;2024-02-15T13:18:50;1.00;;;0.60;;
40022;SDS011;25713;-35.352;149.036;2024-02-15T13:21:19;0.90;;;0.70;;
40022;SDS011;25713;-35.352;149.036;2024-02-15T13:23:49;0.82;;;0.70;;
40022;SDS011;25713;-35.352;149.036;2024-02-15T13:26:18;0.60;;;0.60;;
40022;SDS011;25713;-35.352;149.036;2024-02-15T13:28:48;0.55;;;0.50;;
40022;SDS011;25713;-35.352;149.036;2024-02-15T13:31:19;0.90;;;0.65;;
40022;SDS011;25713;-35.352;149.036;2024-02-15T13:33:49;0.85;;;0.65;;
40022;SDS011;25713;-35.352;149.036;2024-02-15T13:36:18;0.93;;;0.63;;
40022;SDS011;25713;-35.352;149.036;2024-02-15T13:38:48;1.00;;;0.60;;
40022;SDS011;25713;-35.352;149.036;2024-02-15T13:41:17;0.80;;;0.57;;
40022;SDS011;25713;-35.352;149.036;2024-02-15T13:43:47;0.50;;;0.47;;
40022;SDS011;25713;-35.352;149.036;2024-02-15T13:46:16;0.50;;;0.50;;
40022;SDS011;25713;-35.352;149.036;2024-02-15T13:48:48;0.47;;;0.47;;
40022;SDS011;25713;-35.352;149.036;2024-02-15T13:51:19;0.90;;;0.80;;
40022;SDS011;25713;-35.352;149.036;2024-02-15T13:54:12;0.95;;;0.50;;
40022;SDS011;25713;-35.352;149.036;2024-02-15T13:56:42;0.80;;;0.60;;
40022;SDS011;25713;-35.352;149.036;2024-02-15T13:59:12;0.90;;;0.50;;
40022;SDS011;25713;-35.352;149.036;2024-02-15T14:01:43;0.63;;;0.45;;
40022;SDS011;25713;-35.352;149.036;2024-02-15T14:04:12;0.60;;;0.55;;
40022;SDS011;25713;-35.352;149.036;2024-02-15T14:06:42;0.63;;;0.43;;
40022;SDS011;25713;-35.352;149.036;2024-02-15T14:09:11;1.23;;;0.50;;
40022;SDS011;25713;-35.352;149.036;2024-02-15T14:11:41;0.52;;;0.50;;
40022;SDS011;25713;-35.352;149.036;2024-02-15T14:14:10;0.60;;;0.50;;
40022;SDS011;25713;-35.352;149.036;2024-02-15T14:16:39;0.90;;;0.55;;
40022;SDS011;25713;-35.352;149.036;2024-02-15T14:19:11;2.03;;;0.43;;
40022;SDS011;25713;-35.352;149.036;2024-02-15T14:21:40;0.63;;;0.50;;
40022;SDS011;25713;-35.352;149.036;2024-02-15T14:24:10;0.77;;;0.50;;
40022;SDS011;25713;-35.352;149.036;2024-02-15T14:26:39;0.68;;;0.52;;
40022;SDS011;25713;-35.352;149.036;2024-02-15T14:29:09;1.83;;;0.52;;
40022;SDS011;25713;-35.352;149.036;2024-02-15T14:31:38;0.40;;;0.40;;